Time;durP1;ratioP1;P1;durP2;ratioP2;P2;SDS_P1;SDS_P2;PMS_P1;PMS_P2;Temp;Humidity;BMP_temperature;BMP_pressure;BME280_temperature;BME280_humidity;BME280_pressure;Samples;Min_cycle;Max_cycle;Signal;HPM_P1;HPM_P2
2023/12/24 00:00:49;;;;;;;;;;;-1.20;99.90;;;;;;5018857;28;20270;-61
2023/12/24 00:03:17;;;;;;;;;;;-1.20;99.90;;;;;;5015497;28;19937;-58
2023/12/24 00:05:44;;;;;;;;;;;-1.20;99.90;;;;;;5014133;28;19929;-60
2023/12/24 00:08:11;;;;;;;;;;;-1.20;99.90;;;;;;5017363;28;20040;-59
2023/12/24 00:10:38;;;;;;;;;;;-1.30;99.90;;;;;;5011058;28;20670;-58
2023/12/24 00:13:04;;;;;;;;;;;-1.30;99.90;;;;;;5006959;28;20059;-59
2023/12/24 00:15:31;;;;;;;;;;;-1.40;99.90;;;;;;5014583;28;19972;-58
2023/12/24 00:17:58;;;;;;;;;;;-1.40;99.90;;;;;;5011961;28;19987;-61
2023/12/24 00:20:25;;;;;;;;;;;-1.40;99.90;;;;;;5016733;28;19926;-61
2023/12/24 00:23:05;;;;;;;;;;;-1.40;99.90;;;;;;5014629;28;19930;-60
2023/12/24 00:25:32;;;;;;;;;;;-1.50;99.90;;;;;;5016110;28;19929;-59
2023/12/24 00:27:59;;;;;;;;;;;-1.40;99.90;;;;;;5019060;28;20442;-61
2023/12/24 00:30:29;;;;;;;;;;;-1.40;99.90;;;;;;5013670;28;19932;-64
2023/12/24 00:32:57;;;;;;;;;;;-1.40;99.90;;;;;;5012493;28;19929;-59
2023/12/24 00:35:24;;;;;;;;;;;-1.40;99.90;;;;;;5007972;28;20268;-61
2023/12/24 00:37:51;;;;;;;;;;;-1.40;99.90;;;;;;5009022;28;20308;-63
2023/12/24 00:40:18;;;;;;;;;;;-1.40;99.90;;;;;;5012956;28;19979;-61
2023/12/24 00:42:46;;;;;;;;;;;-1.40;99.90;;;;;;5013744;28;20027;-59
2023/12/24 00:45:13;;;;;;;;;;;-1.40;99.90;;;;;;5014170;28;19987;-57
2023/12/24 00:47:40;;;;;;;;;;;-1.40;99.90;;;;;;5016867;28;20274;-59
2023/12/24 00:50:08;;;;;;;;;;;-1.40;99.90;;;;;;4996427;28;19929;-59
2023/12/24 00:52:35;;;;;;;;;;;-1.40;99.90;;;;;;4997626;28;20405;-61
2023/12/24 00:55:02;;;;;;;;;;;-1.40;99.90;;;;;;5012190;28;20587;-62
2023/12/24 00:57:29;;;;;;;;;;;-1.40;99.90;;;;;;5008250;28;19983;-60
2023/12/24 00:59:56;;;;;;;;;;;-1.40;99.90;;;;;;5003911;28;19948;-60
2023/12/24 01:02:23;;;;;;;;;;;-1.40;99.90;;;;;;4998606;28;19988;-61
2023/12/24 01:04:49;;;;;;;;;;;-1.40;99.90;;;;;;5013107;28;19929;-60
2023/12/24 01:07:16;;;;;;;;;;;-1.40;99.90;;;;;;4985218;28;19929;-60
2023/12/24 01:09:43;;;;;;;;;;;-1.40;99.90;;;;;;5018381;28;19933;-62
2023/12/24 01:12:11;;;;;;;;;;;-1.40;99.90;;;;;;5016635;28;19937;-62
2023/12/24 01:14:38;;;;;;;;;;;-1.40;99.90;;;;;;5016307;28;20546;-58
2023/12/24 01:17:04;;;;;;;;;;;-1.40;99.90;;;;;;5019581;28;19929;-59
2023/12/24 01:19:31;;;;;;;;;;;-1.30;99.90;;;;;;5018050;28;19956;-62
2023/12/24 01:21:58;;;;;;;;;;;-1.30;99.90;;;;;;5005107;28;20045;-58
2023/12/24 01:24:25;;;;;;;;;;;-1.30;99.90;;;;;;5006491;28;19979;-63
2023/12/24 01:26:52;;;;;;;;;;;-1.30;99.90;;;;;;5009398;28;19988;-65
2023/12/24 01:29:21;;;;;;;;;;;-1.20;99.90;;;;;;5002116;28;19999;-63
2023/12/24 01:31:47;;;;;;;;;;;-1.20;99.90;;;;;;4984812;28;19925;-58
2023/12/24 01:34:14;;;;;;;;;;;-1.20;99.90;;;;;;5014384;28;19976;-62
2023/12/24 01:36:41;;;;;;;;;;;-1.20;99.90;;;;;;5013802;28;19929;-61
2023/12/24 01:39:08;;;;;;;;;;;-1.20;99.90;;;;;;5018488;28;19929;-58
2023/12/24 01:41:35;;;;;;;;;;;-1.20;99.90;;;;;;4998894;28;20283;-59
2023/12/24 01:44:02;;;;;;;;;;;-1.30;99.90;;;;;;5011693;28;19936;-59
2023/12/24 01:46:29;;;;;;;;;;;-1.20;99.90;;;;;;4986944;28;19926;-64
2023/12/24 01:48:56;;;;;;;;;;;-1.30;99.90;;;;;;5010353;28;19928;-62
2023/12/24 01:51:26;;;;;;;;;;;-1.30;99.90;;;;;;4997069;28;20013;-62
2023/12/24 01:53:53;;;;;;;;;;;-1.30;99.90;;;;;;4988121;28;20019;-59
2023/12/24 01:56:21;;;;;;;;;;;-1.30;99.90;;;;;;4993365;28;20018;-59
2023/12/24 01:58:50;;;;;;;;;;;-1.30;99.90;;;;;;5005611;28;19926;-60
2023/12/24 02:01:17;;;;;;;;;;;-1.40;99.90;;;;;;4993383;28;20291;-61
2023/12/24 02:03:44;;;;;;;;;;;-1.40;99.90;;;;;;4992767;28;20032;-59
2023/12/24 02:06:12;;;;;;;;;;;-1.50;99.90;;;;;;4993697;28;19926;-60
2023/12/24 02:08:39;;;;;;;;;;;-1.40;99.90;;;;;;4987103;28;20042;-58
2023/12/24 02:11:07;;;;;;;;;;;-1.40;99.90;;;;;;4985341;28;19938;-59
2023/12/24 02:13:34;;;;;;;;;;;-1.40;99.90;;;;;;4998533;28;19930;-59
2023/12/24 02:16:02;;;;;;;;;;;-1.40;99.90;;;;;;5007068;28;19926;-62
2023/12/24 02:18:29;;;;;;;;;;;-1.40;99.90;;;;;;4993942;28;20366;-58
2023/12/24 02:21:01;;;;;;;;;;;-1.40;99.90;;;;;;4991782;28;19933;-61
2023/12/24 02:23:29;;;;;;;;;;;-1.40;99.90;;;;;;5007779;28;19930;-59
2023/12/24 02:25:57;;;;;;;;;;;-1.50;99.90;;;;;;5000484;28;19936;-58
2023/12/24 02:28:25;;;;;;;;;;;-1.50;99.90;;;;;;4996172;28;20015;-58
2023/12/24 02:30:55;;;;;;;;;;;-1.50;99.90;;;;;;4988344;28;20288;-62
2023/12/24 02:33:23;;;;;;;;;;;-1.50;99.90;;;;;;4984689;28;19930;-57
2023/12/24 02:35:51;;;;;;;;;;;-1.50;99.90;;;;;;4996491;28;19941;-58
2023/12/24 02:38:18;;;;;;;;;;;-1.50;99.90;;;;;;4986304;28;19930;-62
2023/12/24 02:40:45;;;;;;;;;;;-1.60;99.90;;;;;;4983239;28;19937;-63
2023/12/24 02:43:11;;;;;;;;;;;-1.60;99.90;;;;;;4977867;28;19934;-58
2023/12/24 02:45:39;;;;;;;;;;;-1.60;99.90;;;;;;5005258;28;20020;-65
2023/12/24 02:48:06;;;;;;;;;;;-1.50;99.90;;;;;;4990512;28;20392;-59
2023/12/24 02:50:33;;;;;;;;;;;-1.60;99.90;;;;;;5002613;28;19980;-59
2023/12/24 02:53:00;;;;;;;;;;;-1.60;99.90;;;;;;5012202;28;19925;-60
2023/12/24 02:55:27;;;;;;;;;;;-1.60;99.90;;;;;;5008953;28;20758;-60
2023/12/24 02:57:54;;;;;;;;;;;-1.60;99.90;;;;;;4979749;28;19983;-57
2023/12/24 03:00:20;;;;;;;;;;;-1.60;99.90;;;;;;5006798;28;19936;-60
2023/12/24 03:02:47;;;;;;;;;;;-1.60;99.90;;;;;;4996874;28;19929;-59
2023/12/24 03:05:14;;;;;;;;;;;-1.60;99.90;;;;;;4981283;28;19937;-61
2023/12/24 03:07:41;;;;;;;;;;;-1.60;99.90;;;;;;4982843;28;20352;-59
2023/12/24 03:10:08;;;;;;;;;;;-1.60;99.90;;;;;;5013484;28;19932;-59
2023/12/24 03:12:35;;;;;;;;;;;-1.60;99.90;;;;;;5015566;28;19952;-58
2023/12/24 03:15:02;;;;;;;;;;;-1.50;99.90;;;;;;5017446;28;19925;-58
2023/12/24 03:17:29;;;;;;;;;;;-1.60;99.90;;;;;;5016897;28;20406;-63
2023/12/24 03:19:56;;;;;;;;;;;-1.50;99.90;;;;;;5006807;28;19926;-58
2023/12/24 03:22:23;;;;;;;;;;;-1.50;99.90;;;;;;5010394;28;19929;-59
2023/12/24 03:24:50;;;;;;;;;;;-1.50;99.90;;;;;;5010854;28;19930;-66
2023/12/24 03:27:18;;;;;;;;;;;-1.50;99.90;;;;;;5015149;28;19967;-59
2023/12/24 03:29:45;;;;;;;;;;;-1.50;99.90;;;;;;5016278;28;19926;-62
2023/12/24 03:32:12;;;;;;;;;;;-1.50;99.90;;;;;;5020254;28;19925;-58
2023/12/24 03:34:38;;;;;;;;;;;-1.50;99.90;;;;;;5017484;28;19937;-59
2023/12/24 03:37:05;;;;;;;;;;;-1.50;99.90;;;;;;5020350;28;19936;-63
2023/12/24 03:39:32;;;;;;;;;;;-1.60;99.90;;;;;;4989651;28;19933;-58
2023/12/24 03:41:59;;;;;;;;;;;-1.60;99.90;;;;;;5011138;28;19925;-58
2023/12/24 03:44:26;;;;;;;;;;;-1.60;99.90;;;;;;5011565;28;19929;-59
2023/12/24 03:46:53;;;;;;;;;;;-1.60;99.90;;;;;;5013175;28;19926;-60
2023/12/24 03:49:20;;;;;;;;;;;-1.60;99.90;;;;;;5013673;28;20311;-60
2023/12/24 03:51:47;;;;;;;;;;;-1.60;99.90;;;;;;5017008;28;20268;-63
2023/12/24 03:54:14;;;;;;;;;;;-1.70;99.90;;;;;;5016892;28;19936;-60
2023/12/24 03:56:41;;;;;;;;;;;-1.70;99.90;;;;;;5017167;28;19926;-59
2023/12/24 03:59:08;;;;;;;;;;;-1.70;99.90;;;;;;5017092;28;20047;-61
2023/12/24 04:01:34;;;;;;;;;;;-1.70;99.90;;;;;;5019858;28;19930;-57
2023/12/24 04:04:01;;;;;;;;;;;-1.60;99.90;;;;;;5020189;28;19929;-63
2023/12/24 04:06:28;;;;;;;;;;;-1.70;99.90;;;;;;5006469;28;20367;-58
2023/12/24 04:08:55;;;;;;;;;;;-1.70;99.90;;;;;;5010883;28;19983;-57
2023/12/24 04:11:22;;;;;;;;;;;-1.70;99.90;;;;;;5009599;28;19955;-60
2023/12/24 04:13:49;;;;;;;;;;;-1.70;99.90;;;;;;4982789;28;20015;-60
2023/12/24 04:16:17;;;;;;;;;;;-1.80;99.90;;;;;;4999278;28;21190;-58
2023/12/24 04:18:44;;;;;;;;;;;-1.80;99.90;;;;;;5016825;28;19925;-58
2023/12/24 04:21:11;;;;;;;;;;;-1.70;99.90;;;;;;5018524;28;19925;-60
2023/12/24 04:23:38;;;;;;;;;;;-1.70;99.90;;;;;;5018120;28;19935;-59
2023/12/24 04:26:04;;;;;;;;;;;-1.70;99.90;;;;;;5023082;28;19940;-60
2023/12/24 04:28:32;;;;;;;;;;;-1.80;99.90;;;;;;5011202;28;19957;-58
2023/12/24 04:30:59;;;;;;;;;;;-1.70;99.90;;;;;;4980531;28;20379;-58
2023/12/24 04:33:26;;;;;;;;;;;-1.70;99.90;;;;;;5012510;28;19929;-58
2023/12/24 04:35:53;;;;;;;;;;;-1.80;99.90;;;;;;5001450;28;19926;-64
2023/12/24 04:38:20;;;;;;;;;;;-1.80;99.90;;;;;;5014110;28;19937;-59
2023/12/24 04:40:47;;;;;;;;;;;-1.80;99.90;;;;;;4999778;28;20382;-64
2023/12/24 04:43:14;;;;;;;;;;;-1.80;99.90;;;;;;4984987;28;19926;-60
2023/12/24 04:45:41;;;;;;;;;;;-1.80;99.90;;;;;;5015737;28;20012;-58
2023/12/24 04:48:08;;;;;;;;;;;-1.80;99.90;;;;;;5008949;28;19951;-57
2023/12/24 04:50:35;;;;;;;;;;;-1.80;99.90;;;;;;5015258;28;20653;-61
2023/12/24 04:53:03;;;;;;;;;;;-1.80;99.90;;;;;;4999552;28;19936;-60
2023/12/24 04:55:29;;;;;;;;;;;-1.80;99.90;;;;;;4999889;28;19933;-59
2023/12/24 04:57:56;;;;;;;;;;;-1.80;99.90;;;;;;5003085;28;20466;-58
2023/12/24 05:00:23;;;;;;;;;;;-1.80;99.90;;;;;;5004575;28;20040;-60
2023/12/24 05:02:51;;;;;;;;;;;-1.80;99.90;;;;;;4993840;28;20327;-65
2023/12/24 05:05:18;;;;;;;;;;;-1.90;99.90;;;;;;4992320;28;19933;-59
2023/12/24 05:07:45;;;;;;;;;;;-1.90;99.90;;;;;;5000684;28;19933;-59
2023/12/24 05:10:11;;;;;;;;;;;-1.90;99.90;;;;;;5017927;28;19932;-62
2023/12/24 05:12:39;;;;;;;;;;;-1.80;99.90;;;;;;5008578;28;19937;-58
2023/12/24 05:15:06;;;;;;;;;;;-1.80;99.90;;;;;;5013809;28;19935;-59
2023/12/24 05:17:33;;;;;;;;;;;-1.90;99.90;;;;;;4985697;28;19969;-59
2023/12/24 05:20:00;;;;;;;;;;;-1.90;99.90;;;;;;4994673;28;20596;-57
2023/12/24 05:22:27;;;;;;;;;;;-1.90;99.90;;;;;;4995378;28;19929;-61
2023/12/24 05:24:54;;;;;;;;;;;-1.90;99.90;;;;;;5012727;28;20354;-59
2023/12/24 05:27:21;;;;;;;;;;;-1.80;99.90;;;;;;5019883;28;19947;-58
2023/12/24 05:29:47;;;;;;;;;;;-1.80;99.90;;;;;;5013605;28;19937;-63
2023/12/24 05:32:14;;;;;;;;;;;-1.80;99.90;;;;;;5020923;28;19928;-59
2023/12/24 05:34:42;;;;;;;;;;;-1.80;99.90;;;;;;5017906;28;19926;-58
2023/12/24 05:37:09;;;;;;;;;;;-1.80;99.90;;;;;;5021429;28;19995;-58
2023/12/24 05:39:40;;;;;;;;;;;-1.80;99.90;;;;;;5008756;28;19961;-59
2023/12/24 05:42:06;;;;;;;;;;;-1.90;99.90;;;;;;5004103;28;19934;-59
2023/12/24 05:44:33;;;;;;;;;;;-1.80;99.90;;;;;;5004262;28;20392;-57
2023/12/24 05:47:00;;;;;;;;;;;-1.80;99.90;;;;;;5012671;28;19932;-58
2023/12/24 05:49:30;;;;;;;;;;;-1.80;99.90;;;;;;5008955;28;19940;-60
2023/12/24 05:51:57;;;;;;;;;;;-1.80;99.90;;;;;;5014254;28;19936;-58
2023/12/24 05:54:24;;;;;;;;;;;-1.80;99.90;;;;;;5010778;28;20708;-57
2023/12/24 05:56:51;;;;;;;;;;;-1.80;99.90;;;;;;5011480;28;19925;-65
2023/12/24 05:59:17;;;;;;;;;;;-1.80;99.90;;;;;;5012420;28;20519;-59
2023/12/24 06:01:44;;;;;;;;;;;-1.80;99.90;;;;;;5017074;28;19936;-61
2023/12/24 06:04:11;;;;;;;;;;;-1.80;99.90;;;;;;5007755;28;19932;-59
2023/12/24 06:06:41;;;;;;;;;;;-1.80;99.90;;;;;;5009638;28;19977;-60
2023/12/24 06:09:08;;;;;;;;;;;-1.80;99.90;;;;;;5010782;28;19929;-58
2023/12/24 06:11:35;;;;;;;;;;;-1.80;99.90;;;;;;5011565;28;19936;-58
2023/12/24 06:14:02;;;;;;;;;;;-1.80;99.90;;;;;;5015886;28;19926;-59
2023/12/24 06:16:29;;;;;;;;;;;-1.80;99.90;;;;;;5012821;28;20391;-58
2023/12/24 06:18:56;;;;;;;;;;;-1.80;99.90;;;;;;5019404;28;19936;-59
2023/12/24 06:21:23;;;;;;;;;;;-1.80;99.90;;;;;;5018384;28;19925;-59
2023/12/24 06:23:51;;;;;;;;;;;-1.80;99.90;;;;;;5015090;28;20528;-59
2023/12/24 06:26:18;;;;;;;;;;;-1.80;99.90;;;;;;5003118;28;19937;-61
2023/12/24 06:28:45;;;;;;;;;;;-1.80;99.90;;;;;;5011678;28;20008;-58
2023/12/24 06:31:18;;;;;;;;;;;-1.80;99.90;;;;;;5004943;28;19953;-57
2023/12/24 06:33:45;;;;;;;;;;;-1.80;99.90;;;;;;5012287;28;19969;-63
2023/12/24 06:36:12;;;;;;;;;;;-1.80;99.90;;;;;;5010172;28;20477;-59
2023/12/24 06:38:39;;;;;;;;;;;-1.80;99.90;;;;;;5013436;28;20023;-62
2023/12/24 06:41:06;;;;;;;;;;;-1.80;99.90;;;;;;5007692;28;21313;-66
2023/12/24 06:43:33;;;;;;;;;;;-1.90;99.90;;;;;;5016214;28;19929;-58
2023/12/24 06:45:59;;;;;;;;;;;-1.90;99.90;;;;;;5015323;28;20027;-61
2023/12/24 06:48:26;;;;;;;;;;;-1.90;99.90;;;;;;5021767;28;19929;-59
2023/12/24 06:50:53;;;;;;;;;;;-1.90;99.90;;;;;;5008380;28;19932;-62
2023/12/24 06:53:20;;;;;;;;;;;-1.80;99.90;;;;;;5008370;28;19929;-59
2023/12/24 06:55:47;;;;;;;;;;;-1.80;99.90;;;;;;5009469;28;19956;-62
2023/12/24 06:58:13;;;;;;;;;;;-1.80;99.90;;;;;;5012372;28;19929;-57
2023/12/24 07:00:40;;;;;;;;;;;-1.90;99.90;;;;;;5012176;28;19938;-60
2023/12/24 07:03:07;;;;;;;;;;;-1.80;99.90;;;;;;5010810;28;20032;-63
2023/12/24 07:05:35;;;;;;;;;;;-1.80;99.90;;;;;;5008287;28;19965;-58
2023/12/24 07:08:02;;;;;;;;;;;-1.80;99.90;;;;;;5011883;28;19961;-60
2023/12/24 07:10:29;;;;;;;;;;;-1.80;99.90;;;;;;5015690;28;19929;-62
2023/12/24 07:12:56;;;;;;;;;;;-1.80;99.90;;;;;;5007623;28;20413;-60
2023/12/24 07:15:23;;;;;;;;;;;-1.80;99.90;;;;;;5001189;28;20338;-60
2023/12/24 07:17:50;;;;;;;;;;;-1.80;99.90;;;;;;5005200;28;20346;-60
2023/12/24 07:20:17;;;;;;;;;;;-1.80;99.90;;;;;;5012253;28;20617;-58
2023/12/24 07:22:44;;;;;;;;;;;-1.80;99.90;;;;;;5011032;28;19969;-58
2023/12/24 07:25:11;;;;;;;;;;;-1.80;99.90;;;;;;5012844;28;19991;-61
2023/12/24 07:27:38;;;;;;;;;;;-1.80;99.90;;;;;;5010540;28;20027;-60
2023/12/24 07:30:05;;;;;;;;;;;-1.80;99.90;;;;;;5015187;28;20495;-59
2023/12/24 07:32:32;;;;;;;;;;;-1.80;99.90;;;;;;4997726;28;19930;-58
2023/12/24 07:34:59;;;;;;;;;;;-1.80;99.90;;;;;;5014657;28;20475;-60
2023/12/24 07:37:26;;;;;;;;;;;-1.80;99.90;;;;;;5011488;28;19929;-59
2023/12/24 07:39:53;;;;;;;;;;;-1.80;99.90;;;;;;5004766;28;19937;-58
2023/12/24 07:42:20;;;;;;;;;;;-1.80;99.90;;;;;;5009411;28;20028;-59
2023/12/24 07:44:47;;;;;;;;;;;-1.80;99.90;;;;;;5010250;28;19933;-59
2023/12/24 07:47:13;;;;;;;;;;;-1.80;99.90;;;;;;5014107;28;19972;-58
2023/12/24 07:49:40;;;;;;;;;;;-1.80;99.90;;;;;;5010993;28;19929;-59
2023/12/24 07:52:07;;;;;;;;;;;-1.80;99.90;;;;;;5014120;28;19955;-57
2023/12/24 07:54:34;;;;;;;;;;;-1.70;99.90;;;;;;5010532;28;19930;-60
2023/12/24 07:57:03;;;;;;;;;;;-1.70;99.90;;;;;;5020239;28;19925;-59
2023/12/24 07:59:30;;;;;;;;;;;-1.70;99.90;;;;;;5005980;28;19959;-60
2023/12/24 08:01:57;;;;;;;;;;;-1.70;99.90;;;;;;5003699;28;19934;-58
2023/12/24 08:04:23;;;;;;;;;;;-1.70;99.90;;;;;;5008486;28;19933;-62
2023/12/24 08:06:51;;;;;;;;;;;-1.70;99.90;;;;;;5008757;28;19973;-60
2023/12/24 08:09:22;;;;;;;;;;;-1.70;99.90;;;;;;5012998;28;19957;-62
2023/12/24 08:11:49;;;;;;;;;;;-1.70;99.90;;;;;;5011577;28;19937;-64
2023/12/24 08:14:15;;;;;;;;;;;-1.70;99.90;;;;;;5011857;28;19934;-58
2023/12/24 08:16:42;;;;;;;;;;;-1.70;99.90;;;;;;5015462;28;19933;-57
2023/12/24 08:19:09;;;;;;;;;;;-1.70;99.90;;;;;;5020085;28;19936;-65
2023/12/24 08:21:36;;;;;;;;;;;-1.60;99.90;;;;;;5018240;28;19975;-57
2023/12/24 08:24:03;;;;;;;;;;;-1.70;99.90;;;;;;5013385;28;20295;-59
2023/12/24 08:26:30;;;;;;;;;;;-1.60;99.90;;;;;;5001585;28;20382;-59
2023/12/24 08:28:57;;;;;;;;;;;-1.60;99.90;;;;;;5011937;28;19926;-60
2023/12/24 08:31:24;;;;;;;;;;;-1.60;99.90;;;;;;5011190;28;19933;-58
2023/12/24 08:33:50;;;;;;;;;;;-1.60;99.90;;;;;;5014628;28;20434;-60
2023/12/24 08:36:17;;;;;;;;;;;-1.60;99.90;;;;;;5013281;28;19939;-63
2023/12/24 08:38:44;;;;;;;;;;;-1.60;99.90;;;;;;5015143;28;19929;-58
2023/12/24 08:41:12;;;;;;;;;;;-1.60;99.90;;;;;;5017538;28;19936;-59
2023/12/24 08:43:39;;;;;;;;;;;-1.60;99.90;;;;;;5021771;28;19972;-59
2023/12/24 08:46:06;;;;;;;;;;;-1.50;99.90;;;;;;5015464;28;19929;-58
2023/12/24 08:48:32;;;;;;;;;;;-1.60;99.90;;;;;;5000990;28;20005;-59
2023/12/24 08:51:01;;;;;;;;;;;-1.60;99.90;;;;;;5009510;28;19930;-60
2023/12/24 08:53:28;;;;;;;;;;;-1.60;99.90;;;;;;5011631;28;19961;-58
2023/12/24 08:55:55;;;;;;;;;;;-1.60;99.90;;;;;;5013921;28;19973;-58
2023/12/24 08:58:22;;;;;;;;;;;-1.60;99.90;;;;;;5014845;28;20350;-58
2023/12/24 09:00:48;;;;;;;;;;;-1.60;99.90;;;;;;5015471;28;20027;-57
2023/12/24 09:03:16;;;;;;;;;;;-1.60;99.90;;;;;;5017336;28;19929;-59
2023/12/24 09:05:43;;;;;;;;;;;-1.60;99.90;;;;;;5006615;28;19926;-61
2023/12/24 09:08:10;;;;;;;;;;;-1.60;99.90;;;;;;5014559;28;20040;-63
2023/12/24 09:10:41;;;;;;;;;;;-1.60;99.90;;;;;;5011208;28;19929;-60
2023/12/24 09:13:08;;;;;;;;;;;-1.60;99.90;;;;;;5006949;28;20691;-58
2023/12/24 09:15:34;;;;;;;;;;;-1.60;99.90;;;;;;5007807;28;19968;-58
2023/12/24 09:18:02;;;;;;;;;;;-1.60;99.90;;;;;;5000858;28;19933;-59
2023/12/24 09:20:29;;;;;;;;;;;-1.60;99.90;;;;;;5014948;28;19926;-58
2023/12/24 09:22:56;;;;;;;;;;;-1.60;99.90;;;;;;5017610;28;19929;-58
2023/12/24 09:25:22;;;;;;;;;;;-1.60;99.90;;;;;;5016467;28;20021;-58
2023/12/24 09:27:49;;;;;;;;;;;-1.50;99.90;;;;;;5017921;28;20559;-59
2023/12/24 09:30:16;;;;;;;;;;;-1.50;99.90;;;;;;5017566;28;19929;-58
2023/12/24 09:32:43;;;;;;;;;;;-1.50;99.90;;;;;;5025886;28;19935;-59
2023/12/24 09:35:10;;;;;;;;;;;-1.50;99.90;;;;;;5010588;28;20394;-57
2023/12/24 09:37:37;;;;;;;;;;;-1.50;99.90;;;;;;4985774;28;19930;-59
2023/12/24 09:40:06;;;;;;;;;;;-1.50;99.90;;;;;;5009586;28;19929;-59
2023/12/24 09:42:34;;;;;;;;;;;-1.50;99.90;;;;;;5012413;28;19929;-57
2023/12/24 09:45:01;;;;;;;;;;;-1.50;99.90;;;;;;5007251;28;19932;-60
2023/12/24 09:47:28;;;;;;;;;;;-1.50;99.90;;;;;;5000954;28;20346;-60
2023/12/24 09:49:58;;;;;;;;;;;-1.50;99.90;;;;;;5015986;28;19987;-59
2023/12/24 09:52:26;;;;;;;;;;;-1.50;99.90;;;;;;5014788;28;20017;-57
2023/12/24 09:54:53;;;;;;;;;;;-1.40;99.90;;;;;;5015583;28;20031;-60
2023/12/24 09:57:20;;;;;;;;;;;-1.40;99.90;;;;;;5010639;28;19929;-58
2023/12/24 09:59:47;;;;;;;;;;;-1.40;99.90;;;;;;5007260;28;19933;-62
2023/12/24 10:02:14;;;;;;;;;;;-1.40;99.90;;;;;;5003984;28;19973;-58
2023/12/24 10:04:41;;;;;;;;;;;-1.40;99.90;;;;;;5009963;28;19971;-59
2023/12/24 10:07:09;;;;;;;;;;;-1.30;99.90;;;;;;5008155;28;20011;-59
2023/12/24 10:09:43;;;;;;;;;;;-1.30;99.90;;;;;;5010592;28;19936;-59
2023/12/24 10:12:10;;;;;;;;;;;-1.30;99.90;;;;;;5012496;28;20036;-59
2023/12/24 10:14:38;;;;;;;;;;;-1.30;99.90;;;;;;5006337;28;20020;-57
2023/12/24 10:17:06;;;;;;;;;;;-1.20;99.90;;;;;;5016650;28;19929;-58
2023/12/24 10:19:34;;;;;;;;;;;-1.30;99.90;;;;;;5003991;28;19926;-63
2023/12/24 10:22:05;;;;;;;;;;;-1.20;99.90;;;;;;5008455;28;19929;-61
2023/12/24 10:24:40;;;;;;;;;;;-1.20;99.90;;;;;;5006365;28;19969;-60
2023/12/24 10:27:08;;;;;;;;;;;-1.20;99.90;;;;;;5001877;28;19929;-60
2023/12/24 10:29:36;;;;;;;;;;;-1.30;99.90;;;;;;5011469;28;19952;-59
2023/12/24 10:32:03;;;;;;;;;;;-1.30;99.90;;;;;;5011916;28;20471;-61
2023/12/24 10:34:32;;;;;;;;;;;-1.20;99.90;;;;;;5010501;28;19937;-61
2023/12/24 10:37:15;;;;;;;;;;;-1.20;99.90;;;;;;5014880;28;19926;-61
2023/12/24 10:39:42;;;;;;;;;;;-1.20;99.90;;;;;;5008850;28;19952;-59
2023/12/24 10:42:09;;;;;;;;;;;-1.30;99.90;;;;;;5017765;28;20070;-59
2023/12/24 10:44:36;;;;;;;;;;;-1.20;99.90;;;;;;5006779;28;19936;-59
2023/12/24 10:47:03;;;;;;;;;;;-1.20;99.90;;;;;;5001827;28;19934;-59
2023/12/24 10:49:31;;;;;;;;;;;-1.20;99.90;;;;;;5011776;28;19937;-58
2023/12/24 10:51:59;;;;;;;;;;;-1.20;99.90;;;;;;5007089;28;19925;-58
2023/12/24 10:54:27;;;;;;;;;;;-1.20;99.90;;;;;;5009549;28;19925;-61
2023/12/24 10:57:14;;;;;;;;;;;-1.20;99.90;;;;;;5016021;28;20442;-58
2023/12/24 10:59:55;;;;;;;;;;;-1.20;99.90;;;;;;4980347;28;19957;-58
2023/12/24 11:02:23;;;;;;;;;;;-1.20;99.90;;;;;;5011516;28;20048;-61
2023/12/24 11:04:49;;;;;;;;;;;-1.10;99.90;;;;;;5011497;28;19929;-62
2023/12/24 11:07:31;;;;;;;;;;;-1.10;99.90;;;;;;5015380;28;19925;-62
2023/12/24 11:10:02;;;;;;;;;;;-1.10;99.90;;;;;;5004903;28;19933;-58
2023/12/24 11:12:30;;;;;;;;;;;-1.00;99.90;;;;;;5009031;28;19964;-61
2023/12/24 11:14:58;;;;;;;;;;;-1.00;99.90;;;;;;5012294;28;19948;-59
2023/12/24 11:17:31;;;;;;;;;;;-1.00;99.90;;;;;;4993520;28;20574;-57
2023/12/24 11:20:17;;;;;;;;;;;-1.00;99.90;;;;;;5004517;28;19933;-59
2023/12/24 11:23:02;;;;;;;;;;;-1.00;99.90;;;;;;5012622;28;19929;-59
2023/12/24 11:25:34;;;;;;;;;;;-1.00;99.90;;;;;;5016283;28;19930;-58
2023/12/24 11:28:01;;;;;;;;;;;-1.00;99.90;;;;;;5017981;28;19925;-58
2023/12/24 11:30:29;;;;;;;;;;;-1.00;99.90;;;;;;5017990;28;19933;-59
2023/12/24 11:32:56;;;;;;;;;;;-1.00;99.90;;;;;;5008592;28;20410;-59
2023/12/24 11:35:42;;;;;;;;;;;-1.00;99.90;;;;;;5008668;28;20375;-59
2023/12/24 11:38:31;;;;;;;;;;;-1.00;99.90;;;;;;5000948;28;19929;-60
2023/12/24 11:41:08;;;;;;;;;;;-1.00;99.90;;;;;;5008547;28;20019;-58
2023/12/24 11:43:35;;;;;;;;;;;-1.00;99.90;;;;;;5014797;28;19929;-62
2023/12/24 11:46:02;;;;;;;;;;;-1.00;99.90;;;;;;5015378;28;19936;-60
2023/12/24 11:48:30;;;;;;;;;;;-1.00;99.90;;;;;;5023301;28;19925;-57
2023/12/24 11:51:07;;;;;;;;;;;-1.00;99.90;;;;;;5017719;28;19929;-60
2023/12/24 11:53:35;;;;;;;;;;;-1.00;99.90;;;;;;5022414;28;19928;-60
2023/12/24 11:56:12;;;;;;;;;;;-1.00;99.90;;;;;;5011658;28;20311;-61
2023/12/24 11:58:44;;;;;;;;;;;-1.00;99.90;;;;;;5009287;28;20407;-60
2023/12/24 12:01:11;;;;;;;;;;;-1.00;99.90;;;;;;5010874;28;19943;-61
2023/12/24 12:03:38;;;;;;;;;;;-1.00;99.90;;;;;;5011352;28;19932;-63
2023/12/24 12:06:05;;;;;;;;;;;-1.00;99.90;;;;;;5008904;28;20334;-60
2023/12/24 12:08:32;;;;;;;;;;;-0.90;99.90;;;;;;5012979;28;19940;-60
2023/12/24 12:10:59;;;;;;;;;;;-0.90;99.90;;;;;;5011947;28;20429;-60
2023/12/24 12:13:26;;;;;;;;;;;-1.00;99.90;;;;;;5017817;28;20473;-58
2023/12/24 12:15:53;;;;;;;;;;;-1.00;99.90;;;;;;5025527;28;19929;-60
2023/12/24 12:18:20;;;;;;;;;;;-1.00;99.90;;;;;;5018098;28;19930;-61
2023/12/24 12:20:47;;;;;;;;;;;-0.90;99.90;;;;;;5003864;28;19937;-62
2023/12/24 12:23:16;;;;;;;;;;;-1.00;99.90;;;;;;5004696;28;19930;-60
2023/12/24 12:25:43;;;;;;;;;;;-0.90;99.90;;;;;;5015051;28;19936;-60
2023/12/24 12:28:11;;;;;;;;;;;-0.90;99.90;;;;;;5013303;28;19925;-61
2023/12/24 12:30:38;;;;;;;;;;;-1.00;99.90;;;;;;5008023;28;20007;-60
2023/12/24 12:33:05;;;;;;;;;;;-1.00;99.90;;;;;;5013918;28;20326;-59
2023/12/24 12:35:33;;;;;;;;;;;-0.90;99.90;;;;;;5020575;28;20015;-63
2023/12/24 12:38:00;;;;;;;;;;;-1.00;99.90;;;;;;5015303;28;19929;-59
2023/12/24 12:40:26;;;;;;;;;;;-1.00;99.90;;;;;;5018117;28;19984;-58
2023/12/24 12:43:08;;;;;;;;;;;-1.00;99.90;;;;;;5008053;28;19936;-58
2023/12/24 12:45:35;;;;;;;;;;;-1.00;99.90;;;;;;5012365;28;19925;-61
2023/12/24 12:48:03;;;;;;;;;;;-1.00;99.90;;;;;;5012365;28;20323;-58
2023/12/24 12:50:30;;;;;;;;;;;-1.10;99.90;;;;;;5008877;28;20383;-60
2023/12/24 12:52:58;;;;;;;;;;;-1.10;99.90;;;;;;5013066;28;20024;-60
2023/12/24 12:55:25;;;;;;;;;;;-1.10;99.90;;;;;;5009860;28;19952;-58
2023/12/24 12:57:52;;;;;;;;;;;-1.10;99.90;;;;;;5017563;28;19929;-62
2023/12/24 13:00:20;;;;;;;;;;;-1.10;99.90;;;;;;5019816;28;19939;-59
2023/12/24 13:02:47;;;;;;;;;;;-1.20;99.90;;;;;;5016389;28;19963;-60
2023/12/24 13:05:23;;;;;;;;;;;-1.20;99.90;;;;;;5012903;28;19972;-57
2023/12/24 13:07:50;;;;;;;;;;;-1.20;99.90;;;;;;5003857;28;19929;-59
2023/12/24 13:10:26;;;;;;;;;;;-1.20;99.90;;;;;;5004142;28;19968;-60
2023/12/24 13:13:07;;;;;;;;;;;-1.30;99.90;;;;;;5007350;28;19975;-63
2023/12/24 13:15:33;;;;;;;;;;;-1.30;99.90;;;;;;5017932;28;20384;-60
2023/12/24 13:18:17;;;;;;;;;;;-1.30;99.90;;;;;;5013860;28;19929;-59
2023/12/24 13:20:45;;;;;;;;;;;-1.30;99.90;;;;;;5013365;28;19930;-60
2023/12/24 13:23:12;;;;;;;;;;;-1.30;99.90;;;;;;5012763;28;19937;-61
2023/12/24 13:25:43;;;;;;;;;;;-1.40;99.90;;;;;;5017353;28;19984;-58
2023/12/24 13:28:10;;;;;;;;;;;-1.40;99.90;;;;;;5019217;28;19940;-60
2023/12/24 13:30:40;;;;;;;;;;;-1.40;99.90;;;;;;5006092;28;20303;-59
2023/12/24 13:33:07;;;;;;;;;;;-1.40;99.90;;;;;;5009549;28;19961;-59
2023/12/24 13:35:37;;;;;;;;;;;-1.50;99.90;;;;;;5011941;28;19925;-57
2023/12/24 13:38:08;;;;;;;;;;;-1.50;99.90;;;;;;5004815;28;19937;-59
2023/12/24 13:40:36;;;;;;;;;;;-1.50;99.90;;;;;;5011281;28;19925;-62
2023/12/24 13:43:06;;;;;;;;;;;-1.60;99.90;;;;;;5011728;28;20367;-59
2023/12/24 13:45:34;;;;;;;;;;;-1.60;99.90;;;;;;5021322;28;19971;-59
2023/12/24 13:48:02;;;;;;;;;;;-1.60;99.90;;;;;;5015196;28;19960;-58
2023/12/24 13:50:31;;;;;;;;;;;-1.60;99.90;;;;;;5013422;28;19972;-61
2023/12/24 13:52:59;;;;;;;;;;;-1.70;99.90;;;;;;5010998;28;20292;-59
2023/12/24 13:55:45;;;;;;;;;;;-1.70;99.90;;;;;;5004220;28;19933;-58
2023/12/24 13:58:11;;;;;;;;;;;-1.70;99.90;;;;;;5011501;28;19975;-60
2023/12/24 14:00:38;;;;;;;;;;;-1.80;99.90;;;;;;5011172;28;19983;-60
2023/12/24 14:03:05;;;;;;;;;;;-1.80;99.90;;;;;;5012954;28;20293;-57
2023/12/24 14:05:32;;;;;;;;;;;-1.90;99.90;;;;;;5012847;28;19935;-61
2023/12/24 14:07:59;;;;;;;;;;;-1.90;99.90;;;;;;5014536;28;19934;-58
2023/12/24 14:10:26;;;;;;;;;;;-1.90;99.90;;;;;;5017192;28;20291;-59
2023/12/24 14:12:56;;;;;;;;;;;-2.00;99.90;;;;;;5013204;28;19929;-62
2023/12/24 14:15:23;;;;;;;;;;;-2.00;99.90;;;;;;5015002;28;19936;-58
2023/12/24 14:17:50;;;;;;;;;;;-2.00;99.90;;;;;;4997384;28;19929;-60
2023/12/24 14:20:17;;;;;;;;;;;-2.00;99.90;;;;;;5004991;28;19938;-60